Costa Fortuna — IBNY — position and weather

sailwx.info

Track history (hours):
 
Tides and Currents Weather Stations Pressure Air Temp Water Temp Dewpoint Dewpoint Depression Visibility Wind Speed Wind Dir Waves Ship Positions

Costa Fortuna

Last reported at 2017-Jun-14 01:42 UTC. Time now 2017-Jun-23 20:28 UTC.
Position N 37°23' E 123°09'.
Warning: this ship's position is 9 days out of date.

Length 272 m; draft 8.2 m.

Type: Ship. MMSI: 247094800.

Date/timePositionNaut miles runAvg speedWind from/ knotsBaromVisibWave heightAir tempDewpointWater temp
2017-Jun-14 01:42N 37°23' E 123°09'416.6
2017-Jun-14 01:28N 37°26' E 123°08'714.8
2017-Jun-14 01:00N 37°32' E 123°04'816.6
2017-Jun-14 00:30N 37°36' E 122°55'816.8
2017-Jun-14 00:00N 37°41' E 122°46'917.3
2017-Jun-13 23:30N 37°45' E 122°36'917.6
2017-Jun-13 23:00N 37°49' E 122°27'918.0
2017-Jun-13 22:30N 37°54' E 122°17'918.1
2017-Jun-13 22:00N 37°59' E 122°07'918.3
2017-Jun-13 21:30N 38°03' E 121°57'918.3
2017-Jun-13 21:00N 38°08' E 121°47'918.2
2017-Jun-13 20:30N 38°13' E 121°37'917.9
2017-Jun-13 20:00N 38°17' E 121°27'918.2
2017-Jun-13 19:30N 38°22' E 121°18'917.8
2017-Jun-13 19:00N 38°27' E 121°08'817.0
2017-Jun-13 18:30N 38°31' E 120°59'712.8
2017-Jun-13 17:59N 38°34' E 120°51'912.3
2017-Jun-13 17:18N 38°35' E 120°40'617.4
2017-Jun-13 16:58N 38°35' E 120°33'817.6
2017-Jun-13 16:30N 38°36' E 120°22'917.7
2017-Jun-13 15:59N 38°37' E 120°11'2317.8
2017-Jun-13 14:43N 38°39' E 119°42'818.1
2017-Jun-13 14:16N 38°40' E 119°32'82 6.2
2017-Jun-13 01:03N 38°58' E 117°49'2512.6
2017-Jun-12 23:02N 38°51' E 118°20'416.3
2017-Jun-12 22:48N 38°51' E 118°25'1516.7
2017-Jun-12 21:55N 38°49' E 118°44'817.9
2017-Jun-12 21:28N 38°49' E 118°55'2219.1
2017-Jun-12 20:18N 38°47' E 119°23'619.3
2017-Jun-12 20:00N 38°46' E 119°30'1019.5
2017-Jun-12 19:30N 38°45' E 119°43'1019.4
2017-Jun-12 19:00N 38°44' E 119°55'1019.4
2017-Jun-12 18:30N 38°43' E 120°07'1019.5
2017-Jun-12 18:00N 38°41' E 120°20'1019.4
2017-Jun-12 17:30N 38°39' E 120°32'917.9
2017-Jun-12 17:00N 38°38' E 120°43'611.1
2017-Jun-12 16:30N 38°37' E 120°50'611.8
2017-Jun-12 16:00N 38°35' E 120°57'816.7
2017-Jun-12 15:30N 38°31' E 121°07'918.3
2017-Jun-12 15:00N 38°27' E 121°17'918.8
2017-Jun-12 14:30N 38°22' E 121°27'1919.0
2017-Jun-12 13:30N 38°13' E 121°48'1019.5
2017-Jun-12 13:00N 38°08' E 121°59'1019.6
2017-Jun-12 12:30N 38°02' E 122°09'1019.8
2017-Jun-12 12:00N 37°57' E 122°20'1019.9
2017-Jun-12 11:30N 37°53' E 122°31'1020.2
2017-Jun-12 11:00N 37°47' E 122°42'1020.3
2017-Jun-12 10:30N 37°42' E 122°53'1020.8
2017-Jun-12 10:00N 37°37' E 123°05'1019.9
2017-Jun-12 09:30N 37°30' E 123°14'1020.6
2017-Jun-12 09:00N 37°21' E 123°19'1120.3
2017-Jun-12 08:29N 37°11' E 123°25'  
2017-Jun-09 07:55N 37°20' E 123°17'6113.9
2017-Jun-09 03:32N 37°56' E 122°15'114.7
2017-Jun-09 03:26N 37°57' E 122°13'914.3
2017-Jun-09 02:47N 38°01' E 122°03'414.1
2017-Jun-09 02:30N 38°03' E 121°58'714.0
2017-Jun-09 02:00N 38°07' E 121°51'714.3
2017-Jun-09 01:31N 38°10' E 121°43'1019.6
2017-Jun-09 01:01N 38°15' E 121°32'1020.2
2017-Jun-09 00:31N 38°20' E 121°21'1121.1
2017-Jun-09 00:00N 38°26' E 121°09'1418.0
2017-Jun-08 23:13N 38°33' E 120°53'414.5
2017-Jun-08 22:57N 38°34' E 120°48'818.1
2017-Jun-08 22:28N 38°35' E 120°38'1021.8
2017-Jun-08 22:01N 38°36' E 120°25'30 1.1
2017-Jun-07 18:18N 38°44' E 119°48'818.4
2017-Jun-07 17:51N 38°44' E 119°59'718.7
2017-Jun-07 17:29N 38°43' E 120°08'918.8
2017-Jun-07 17:00N 38°41' E 120°19'2018.2
2017-Jun-07 15:54N 38°38' E 120°45'511.6
2017-Jun-07 15:28N 38°37' E 120°51'511.1
2017-Jun-07 15:01N 38°35' E 120°57'1817.6
2017-Jun-07 14:00N 38°26' E 121°17'1019.0
2017-Jun-07 13:30N 38°21' E 121°27'918.8
2017-Jun-07 13:01N 38°16' E 121°37'918.6
2017-Jun-07 12:31N 38°12' E 121°47'918.5
2017-Jun-07 12:00N 38°09' E 121°58'918.5
2017-Jun-07 11:31N 38°05' E 122°09'1018.7
2017-Jun-07 10:59N 38°00' E 122°20'918.8
2017-Jun-07 10:30N 37°55' E 122°29'1918.7
2017-Jun-07 09:30N 37°44' E 122°49'  
2017-Jun-04 16:15N 35°37' E 124°22'312.3
2017-Jun-04 16:00N 35°40' E 124°20'712.4
2017-Jun-04 15:27N 35°46' E 124°16'1612.3
2017-Jun-04 14:10N 36°00' E 124°07'8113.2
2017-Jun-04 08:02N 37°12' E 123°22'314.0
2017-Jun-04 07:49N 37°15' E 123°20'513.9
2017-Jun-04 07:26N 37°20' E 123°17'613.8
2017-Jun-04 06:59N 37°25' E 123°13'3313.6
2017-Jun-04 04:35N 37°45' E 122°41'114.7
2017-Jun-04 04:30N 37°46' E 122°39'714.3
2017-Jun-04 04:00N 37°49' E 122°31'914.6
2017-Jun-04 03:24N 37°54' E 122°22'614.7
2017-Jun-04 03:00N 37°57' E 122°16'714.7
2017-Jun-04 02:30N 38°01' E 122°08'714.6
2017-Jun-04 02:00N 38°05' E 122°00'  
Track history (hours):
 
Tides and Currents Weather Stations Pressure Air Temp Water Temp Dewpoint Dewpoint Depression Visibility Wind Speed Wind Dir Waves Ship Positions

Costa Fortuna

Last reported at 2017-Jun-14 01:42 UTC. Time now 2017-Jun-23 20:28 UTC.
Position N 37°23' E 123°09'.
Warning: this ship's position is 9 days out of date.

Length 272 m; draft 8.2 m.

Type: Ship. MMSI: 247094800.

Date/timePositionNaut miles runAvg speedWind from/ knotsBaromVisibWave heightAir tempDewpointWater temp
2017-Jun-14 01:42N 37°23' E 123°09'416.6
2017-Jun-14 01:28N 37°26' E 123°08'714.8
2017-Jun-14 01:00N 37°32' E 123°04'816.6
2017-Jun-14 00:30N 37°36' E 122°55'816.8
2017-Jun-14 00:00N 37°41' E 122°46'917.3
2017-Jun-13 23:30N 37°45' E 122°36'917.6
2017-Jun-13 23:00N 37°49' E 122°27'918.0
2017-Jun-13 22:30N 37°54' E 122°17'918.1
2017-Jun-13 22:00N 37°59' E 122°07'918.3
2017-Jun-13 21:30N 38°03' E 121°57'918.3
2017-Jun-13 21:00N 38°08' E 121°47'918.2
2017-Jun-13 20:30N 38°13' E 121°37'917.9
2017-Jun-13 20:00N 38°17' E 121°27'918.2
2017-Jun-13 19:30N 38°22' E 121°18'917.8
2017-Jun-13 19:00N 38°27' E 121°08'817.0
2017-Jun-13 18:30N 38°31' E 120°59'712.8
2017-Jun-13 17:59N 38°34' E 120°51'912.3
2017-Jun-13 17:18N 38°35' E 120°40'617.4
2017-Jun-13 16:58N 38°35' E 120°33'817.6
2017-Jun-13 16:30N 38°36' E 120°22'917.7
2017-Jun-13 15:59N 38°37' E 120°11'2317.8
2017-Jun-13 14:43N 38°39' E 119°42'818.1
2017-Jun-13 14:16N 38°40' E 119°32'82 6.2
2017-Jun-13 01:03N 38°58' E 117°49'2512.6
2017-Jun-12 23:02N 38°51' E 118°20'416.3
2017-Jun-12 22:48N 38°51' E 118°25'1516.7
2017-Jun-12 21:55N 38°49' E 118°44'817.9
2017-Jun-12 21:28N 38°49' E 118°55'2219.1
2017-Jun-12 20:18N 38°47' E 119°23'619.3
2017-Jun-12 20:00N 38°46' E 119°30'1019.5
2017-Jun-12 19:30N 38°45' E 119°43'1019.4
2017-Jun-12 19:00N 38°44' E 119°55'1019.4
2017-Jun-12 18:30N 38°43' E 120°07'1019.5
2017-Jun-12 18:00N 38°41' E 120°20'1019.4
2017-Jun-12 17:30N 38°39' E 120°32'917.9
2017-Jun-12 17:00N 38°38' E 120°43'611.1
2017-Jun-12 16:30N 38°37' E 120°50'611.8
2017-Jun-12 16:00N 38°35' E 120°57'816.7
2017-Jun-12 15:30N 38°31' E 121°07'918.3
2017-Jun-12 15:00N 38°27' E 121°17'918.8
2017-Jun-12 14:30N 38°22' E 121°27'1919.0
2017-Jun-12 13:30N 38°13' E 121°48'1019.5
2017-Jun-12 13:00N 38°08' E 121°59'1019.6
2017-Jun-12 12:30N 38°02' E 122°09'1019.8
2017-Jun-12 12:00N 37°57' E 122°20'1019.9
2017-Jun-12 11:30N 37°53' E 122°31'1020.2
2017-Jun-12 11:00N 37°47' E 122°42'1020.3
2017-Jun-12 10:30N 37°42' E 122°53'1020.8
2017-Jun-12 10:00N 37°37' E 123°05'1019.9
2017-Jun-12 09:30N 37°30' E 123°14'1020.6
2017-Jun-12 09:00N 37°21' E 123°19'1120.3
2017-Jun-12 08:29N 37°11' E 123°25'  
2017-Jun-09 07:55N 37°20' E 123°17'6113.9
2017-Jun-09 03:32N 37°56' E 122°15'114.7
2017-Jun-09 03:26N 37°57' E 122°13'914.3
2017-Jun-09 02:47N 38°01' E 122°03'414.1
2017-Jun-09 02:30N 38°03' E 121°58'714.0
2017-Jun-09 02:00N 38°07' E 121°51'714.3
2017-Jun-09 01:31N 38°10' E 121°43'1019.6
2017-Jun-09 01:01N 38°15' E 121°32'1020.2
2017-Jun-09 00:31N 38°20' E 121°21'1121.1
2017-Jun-09 00:00N 38°26' E 121°09'1418.0
2017-Jun-08 23:13N 38°33' E 120°53'414.5
2017-Jun-08 22:57N 38°34' E 120°48'818.1
2017-Jun-08 22:28N 38°35' E 120°38'1021.8
2017-Jun-08 22:01N 38°36' E 120°25'30 1.1
2017-Jun-07 18:18N 38°44' E 119°48'818.4
2017-Jun-07 17:51N 38°44' E 119°59'718.7
2017-Jun-07 17:29N 38°43' E 120°08'918.8
2017-Jun-07 17:00N 38°41' E 120°19'2018.2
2017-Jun-07 15:54N 38°38' E 120°45'511.6
2017-Jun-07 15:28N 38°37' E 120°51'511.1
2017-Jun-07 15:01N 38°35' E 120°57'1817.6
2017-Jun-07 14:00N 38°26' E 121°17'1019.0
2017-Jun-07 13:30N 38°21' E 121°27'918.8
2017-Jun-07 13:01N 38°16' E 121°37'918.6
2017-Jun-07 12:31N 38°12' E 121°47'918.5
2017-Jun-07 12:00N 38°09' E 121°58'918.5
2017-Jun-07 11:31N 38°05' E 122°09'1018.7
2017-Jun-07 10:59N 38°00' E 122°20'918.8
2017-Jun-07 10:30N 37°55' E 122°29'1918.7
2017-Jun-07 09:30N 37°44' E 122°49'  
2017-Jun-04 16:15N 35°37' E 124°22'312.3
2017-Jun-04 16:00N 35°40' E 124°20'712.4
2017-Jun-04 15:27N 35°46' E 124°16'1612.3
2017-Jun-04 14:10N 36°00' E 124°07'8113.2
2017-Jun-04 08:02N 37°12' E 123°22'314.0
2017-Jun-04 07:49N 37°15' E 123°20'513.9
2017-Jun-04 07:26N 37°20' E 123°17'613.8
2017-Jun-04 06:59N 37°25' E 123°13'3313.6
2017-Jun-04 04:35N 37°45' E 122°41'114.7
2017-Jun-04 04:30N 37°46' E 122°39'714.3
2017-Jun-04 04:00N 37°49' E 122°31'914.6
2017-Jun-04 03:24N 37°54' E 122°22'614.7
2017-Jun-04 03:00N 37°57' E 122°16'714.7
2017-Jun-04 02:30N 38°01' E 122°08'714.6
2017-Jun-04 02:00N 38°05' E 122°00'  

Dump ship's entire track history